Time;durP1;ratioP1;P1;durP2;ratioP2;P2;SDS_P1;SDS_P2;PMS_P1;PMS_P2;Temp;Humidity;BMP_temperature;BMP_pressure;BME280_temperature;BME280_humidity;BME280_pressure;Samples;Min_cycle;Max_cycle;Signal;HPM_P1;HPM_P2
2021/10/31 00:00:28;;;;;;;8.27;7.47;;;;;;;;;;5034303;28;20451;-58
2021/10/31 00:02:55;;;;;;;8.33;7.37;;;;;;;;;;5033351;28;20448;-58
2021/10/31 00:05:22;;;;;;;9.40;8.47;;;;;;;;;;5033264;28;20465;-58
2021/10/31 00:07:49;;;;;;;8.07;7.27;;;;;;;;;;5033288;28;20455;-58
2021/10/31 00:10:17;;;;;;;9.43;7.57;;;;;;;;;;5032967;28;20453;-59
2021/10/31 00:12:45;;;;;;;11.43;9.40;;;;;;;;;;5033688;28;20476;-58
2021/10/31 00:15:13;;;;;;;8.93;7.93;;;;;;;;;;5033153;28;20457;-58
2021/10/31 00:17:40;;;;;;;10.90;8.37;;;;;;;;;;5033259;28;20455;-58
2021/10/31 00:20:08;;;;;;;10.10;8.57;;;;;;;;;;5033230;28;20445;-57
2021/10/31 00:22:35;;;;;;;10.83;9.23;;;;;;;;;;5033131;28;20532;-57
2021/10/31 00:25:03;;;;;;;12.47;10.17;;;;;;;;;;5035840;28;20479;-57
2021/10/31 00:27:30;;;;;;;9.93;8.90;;;;;;;;;;5036882;28;20449;-59
2021/10/31 00:29:59;;;;;;;7.77;6.80;;;;;;;;;;5037156;28;20452;-59
2021/10/31 00:32:26;;;;;;;9.80;7.60;;;;;;;;;;5037129;28;20444;-59
2021/10/31 00:34:53;;;;;;;9.33;8.10;;;;;;;;;;5036828;28;20503;-59
2021/10/31 00:37:20;;;;;;;9.90;8.90;;;;;;;;;;5036698;28;20448;-59
2021/10/31 00:39:49;;;;;;;10.90;8.30;;;;;;;;;;5036910;28;20437;-58
2021/10/31 00:42:16;;;;;;;9.50;7.87;;;;;;;;;;5036877;28;20547;-58
2021/10/31 00:44:43;;;;;;;11.07;9.50;;;;;;;;;;5036552;28;20467;-58
2021/10/31 00:47:12;;;;;;;9.70;8.13;;;;;;;;;;5036903;28;20457;-58
2021/10/31 00:49:39;;;;;;;10.40;8.30;;;;;;;;;;5037085;28;20444;-58
2021/10/31 00:52:07;;;;;;;9.00;7.37;;;;;;;;;;5036617;28;20448;-58
2021/10/31 00:54:35;;;;;;;10.60;8.17;;;;;;;;;;5036072;28;20496;-57
2021/10/31 00:57:03;;;;;;;9.27;8.07;;;;;;;;;;5036308;28;20441;-58
2021/10/31 00:59:30;;;;;;;7.60;6.80;;;;;;;;;;5036295;28;20441;-58
2021/10/31 01:01:59;;;;;;;9.73;7.77;;;;;;;;;;5036423;28;20452;-58
2021/10/31 01:04:27;;;;;;;9.33;8.03;;;;;;;;;;5036677;28;20472;-59
2021/10/31 01:07:06;;;;;;;9.53;8.30;;;;;;;;;;5036910;28;20837;-58
2021/10/31 01:09:37;;;;;;;8.70;7.20;;;;;;;;;;5037143;28;20425;-59
2021/10/31 01:12:21;;;;;;;9.60;8.03;;;;;;;;;;5036321;28;20430;-58
2021/10/31 01:14:54;;;;;;;9.17;7.80;;;;;;;;;;5036373;28;20495;-58
2021/10/31 01:17:43;;;;;;;9.20;8.03;;;;;;;;;;5036048;28;20433;-58
2021/10/31 01:20:22;;;;;;;10.47;8.30;;;;;;;;;;5036292;28;20962;-58
2021/10/31 01:22:58;;;;;;;9.70;7.87;;;;;;;;;;5036199;28;20532;-58
2021/10/31 01:25:38;;;;;;;9.20;8.17;;;;;;;;;;5035739;28;20484;-58
2021/10/31 01:28:11;;;;;;;10.87;9.00;;;;;;;;;;5036098;28;20421;-58
2021/10/31 01:30:43;;;;;;;11.87;9.50;;;;;;;;;;5035945;28;20798;-59
2021/10/31 01:33:15;;;;;;;9.30;8.40;;;;;;;;;;5035907;28;20414;-59
2021/10/31 01:35:57;;;;;;;11.10;8.83;;;;;;;;;;5035151;28;20488;-58
2021/10/31 01:38:32;;;;;;;8.20;7.27;;;;;;;;;;5035941;28;20429;-59
2021/10/31 01:41:03;;;;;;;10.00;8.80;;;;;;;;;;5035913;28;20512;-58
2021/10/31 01:43:33;;;;;;;10.33;9.23;;;;;;;;;;5035924;28;20457;-58
2021/10/31 01:46:08;;;;;;;11.80;9.10;;;12.50;91.60;;;;;;5035212;28;20479;-58
2021/10/31 01:48:50;;;;;;;10.50;8.50;;;12.90;99.90;;;;;;5035797;28;20435;-58
2021/10/31 01:51:23;;;;;;;9.83;8.83;;;12.90;99.90;;;;;;5035985;28;20425;-58
2021/10/31 01:53:55;;;;;;;10.50;8.53;;;12.90;99.90;;;;;;5035868;28;20461;-58
2021/10/31 01:56:24;;;;;;;9.37;8.00;;;12.90;99.90;;;;;;5036548;28;20960;-58
2021/10/31 01:58:58;;;;;;;9.90;7.90;;;12.90;99.90;;;;;;5035876;28;20945;-58
2021/10/31 02:01:27;;;;;;;9.80;8.27;;;12.90;99.90;;;;;;5035412;28;20445;-58
2021/10/31 02:03:55;;;;;;;11.80;9.17;;;12.90;99.90;;;;;;5035217;28;20852;-59
2021/10/31 02:06:24;;;;;;;9.17;8.20;;;12.90;99.90;;;;;;5035111;28;20472;-58
2021/10/31 02:08:53;;;;;;;10.00;8.37;;;12.80;99.90;;;;;;5035319;28;20507;-59
2021/10/31 02:11:21;;;;;;;11.60;8.93;;;12.80;99.90;;;;;;5035252;28;20451;-58
2021/10/31 02:13:52;;;;;;;11.37;9.57;;;12.80;99.90;;;;;;5035106;28;20516;-58
2021/10/31 02:16:20;;;;;;;8.33;7.53;;;12.70;99.90;;;;;;5034919;28;20472;-58
2021/10/31 02:18:48;;;;;;;10.87;9.40;;;12.70;99.90;;;;;;5035310;28;20444;-58
2021/10/31 02:21:18;;;;;;;10.73;8.43;;;12.60;99.90;;;;;;5034683;28;20444;-58
2021/10/31 02:23:47;;;;;;;12.13;9.57;;;12.50;99.90;;;;;;5035027;28;20437;-58
2021/10/31 02:26:15;;;;;;;11.27;10.07;;;12.50;99.90;;;;;;5034559;28;20506;-58
2021/10/31 02:28:54;;;;;;;10.30;9.30;;;12.40;99.90;;;;;;5034687;28;20445;-58
2021/10/31 02:31:22;;;;;;;11.03;9.53;;;12.40;99.90;;;;;;5034672;28;20487;-58
2021/10/31 02:33:49;;;;;;;10.77;9.07;;;12.40;99.90;;;;;;5034428;28;20484;-58
2021/10/31 02:36:17;;;;;;;10.80;9.27;;;12.40;99.90;;;;;;5034435;28;20468;-58
2021/10/31 02:38:46;;;;;;;11.47;10.00;;;12.40;99.90;;;;;;5034763;28;20449;-59
2021/10/31 02:41:14;;;;;;;11.70;9.90;;;12.40;99.90;;;;;;5034845;28;20809;-58
2021/10/31 02:43:41;;;;;;;11.23;9.40;;;12.50;99.90;;;;;;5034519;28;20445;-58
2021/10/31 02:46:08;;;;;;;10.47;9.23;;;12.50;99.90;;;;;;5034424;28;21026;-58
2021/10/31 02:48:37;;;;;;;10.07;7.90;;;12.50;99.90;;;;;;5033565;28;20448;-58
2021/10/31 02:51:13;;;;;;;12.70;10.73;;;12.60;99.90;;;;;;5034571;28;20451;-58
2021/10/31 02:53:51;;;;;;;11.50;9.50;;;12.60;99.90;;;;;;5034501;28;20437;-58
2021/10/31 02:56:26;;;;;;;10.37;9.37;;;12.70;99.90;;;;;;5034329;28;20476;-58
2021/10/31 02:59:01;;;;;;;11.50;9.60;;;12.70;99.90;;;;;;5035250;28;20433;-58
2021/10/31 03:01:30;;;;;;;10.33;8.90;;;12.70;99.90;;;;;;5034368;28;20502;-58
2021/10/31 03:03:58;;;;;;;10.73;9.63;;;12.70;99.90;;;;;;5034332;28;20811;-58
2021/10/31 03:06:26;;;;;;;11.13;9.73;;;12.70;99.90;;;;;;5034157;28;20469;-58
2021/10/31 03:08:54;;;;;;;10.83;9.73;;;12.70;99.90;;;;;;5033847;28;20444;-58
2021/10/31 03:11:21;;;;;;;11.20;9.10;;;12.60;99.90;;;;;;5033796;28;20459;-58
2021/10/31 03:13:49;;;;;;;11.00;9.80;;;12.60;99.90;;;;;;5034046;28;20453;-58
2021/10/31 03:16:16;;;;;;;10.90;9.80;;;12.60;99.90;;;;;;5033965;28;20479;-58
2021/10/31 03:18:43;;;;;;;14.10;10.90;;;12.50;99.90;;;;;;5033637;28;20937;-58
2021/10/31 03:21:10;;;;;;;11.07;9.63;;;12.40;99.90;;;;;;5033612;28;20464;-58
2021/10/31 03:23:38;;;;;;;11.13;10.03;;;12.40;99.90;;;;;;5033850;28;20448;-58
2021/10/31 03:26:06;;;;;;;12.00;10.50;;;12.40;99.90;;;;;;5033673;28;20675;-58
2021/10/31 03:28:33;;;;;;;11.47;9.30;;;12.30;99.90;;;;;;5033554;28;20452;-58
2021/10/31 03:31:02;;;;;;;14.40;10.93;;;12.30;99.90;;;;;;5034099;28;20449;-58
2021/10/31 03:33:29;;;;;;;13.43;11.47;;;12.20;99.90;;;;;;5034101;28;20811;-58
2021/10/31 03:35:57;;;;;;;11.70;9.87;;;12.30;99.90;;;;;;5033787;28;20850;-58
2021/10/31 03:38:25;;;;;;;13.73;9.60;;;12.30;99.90;;;;;;5033786;28;20499;-58
2021/10/31 03:40:52;;;;;;;11.33;10.10;;;12.30;99.90;;;;;;5033831;28;20441;-58
2021/10/31 03:43:21;;;;;;;12.33;10.80;;;12.30;99.90;;;;;;5033827;28;20456;-58
2021/10/31 03:45:50;;;;;;;12.43;10.20;;;12.40;99.90;;;;;;5033648;28;20467;-58
2021/10/31 03:48:17;;;;;;;11.63;10.53;;;12.40;99.90;;;;;;5033426;28;20453;-58
2021/10/31 03:50:44;;;;;;;12.67;10.27;;;12.40;99.90;;;;;;5033734;28;20453;-58
2021/10/31 03:53:11;;;;;;;14.10;10.87;;;12.40;99.90;;;;;;5033745;28;20461;-59
2021/10/31 03:55:38;;;;;;;12.87;11.47;;;12.50;99.90;;;;;;5033711;28;20495;-58
2021/10/31 03:58:05;;;;;;;13.87;11.30;;;12.50;99.90;;;;;;5033518;28;20459;-58
2021/10/31 04:00:34;;;;;;;12.20;10.43;;;12.50;99.90;;;;;;5032934;28;20445;-58
2021/10/31 04:03:01;;;;;;;13.57;10.57;;;12.50;99.90;;;;;;5033384;28;20455;-59
2021/10/31 04:08:48;;;;;;;12.17;10.90;;;12.50;99.90;;;;;;5113221;27;20547;-60
2021/10/31 04:11:15;;;;;;;12.40;10.93;;;12.50;99.90;;;;;;5114792;28;20437;-59
2021/10/31 04:13:42;;;;;;;12.43;11.23;;;12.50;99.90;;;;;;5114446;28;20456;-60
2021/10/31 04:16:09;;;;;;;13.40;10.83;;;12.50;99.90;;;;;;5114832;28;20461;-63
2021/10/31 04:18:36;;;;;;;12.00;10.73;;;12.50;99.90;;;;;;5112876;28;20812;-58
2021/10/31 04:21:03;;;;;;;11.87;9.90;;;12.50;99.90;;;;;;5109350;22;20500;-56
2021/10/31 04:23:30;;;;;;;11.60;10.20;;;12.40;99.90;;;;;;5050156;28;20440;-56
2021/10/31 04:25:59;;;;;;;12.60;10.87;;;12.40;99.90;;;;;;5050141;28;20529;-56
2021/10/31 04:28:26;;;;;;;11.47;10.23;;;12.40;99.90;;;;;;5050519;28;20868;-57
2021/10/31 04:30:53;;;;;;;11.70;10.50;;;12.40;99.90;;;;;;5050284;28;20460;-56
2021/10/31 04:33:20;;;;;;;12.40;10.80;;;12.40;99.90;;;;;;5050266;28;20788;-56
2021/10/31 04:35:47;;;;;;;12.13;10.93;;;12.40;99.90;;;;;;5050983;28;20448;-56
2021/10/31 04:38:17;;;;;;;13.53;10.23;;;12.40;99.90;;;;;;5049874;28;20436;-56
2021/10/31 04:40:45;;;;;;;13.30;11.90;;;12.40;99.90;;;;;;5050352;28;20867;-56
2021/10/31 04:43:13;;;;;;;14.27;11.07;;;12.40;99.90;;;;;;5050124;28;20471;-56
2021/10/31 04:45:42;;;;;;;14.60;11.67;;;12.40;99.90;;;;;;5050031;28;20451;-56
2021/10/31 04:48:10;;;;;;;12.80;11.10;;;12.40;99.90;;;;;;5049719;28;20846;-56
2021/10/31 04:50:37;;;;;;;15.10;11.10;;;12.30;99.90;;;;;;5049877;28;21002;-56
2021/10/31 04:53:07;;;;;;;13.10;11.00;;;12.30;99.90;;;;;;5049769;28;20462;-56
2021/10/31 04:55:34;;;;;;;15.00;11.57;;;;;;;;;;5050190;28;20448;-57
2021/10/31 04:58:01;;;;;;;14.43;12.40;;;;;;;;;;5049568;28;20944;-55
2021/10/31 05:00:30;;;;;;;13.60;11.37;;;;;;;;;;5049681;28;20498;-55
2021/10/31 05:02:57;;;;;;;13.83;11.33;;;;;;;;;;5049321;28;20459;-55
2021/10/31 05:05:25;;;;;;;13.53;12.17;;;;;;;;;;5049646;28;20455;-56
2021/10/31 05:07:54;;;;;;;15.70;11.93;;;;;;;;;;5049606;28;20498;-56
2021/10/31 05:10:22;;;;;;;13.90;11.70;;;;;;;;;;5049179;28;20518;-55
2021/10/31 05:12:49;;;;;;;13.47;11.97;;;;;;;;;;5049586;28;20452;-56
2021/10/31 05:15:17;;;;;;;14.37;12.90;;;;;;;;;;5049505;28;20448;-56
2021/10/31 05:17:46;;;;;;;17.93;13.47;;;;;;;;;;5049867;28;20436;-56
2021/10/31 05:20:13;;;;;;;19.10;13.83;;;;;;;;;;5035328;28;20448;-55
2021/10/31 05:22:41;;;;;;;17.57;13.30;;;;;;;;;;5035900;28;20820;-55
2021/10/31 05:25:09;;;;;;;16.83;14.03;;;;;;;;;;5036063;28;20826;-56
2021/10/31 05:27:37;;;;;;;18.80;14.93;;;;;;;;;;5036101;28;20848;-56
2021/10/31 05:30:05;;;;;;;18.60;15.27;;;;;;;;;;5036286;28;20835;-56
2021/10/31 05:32:34;;;;;;;18.87;16.07;;;;;;;;;;5035881;28;20445;-56
2021/10/31 05:35:03;;;;;;;19.17;14.63;;;;;;;;;;5035523;28;20456;-56
2021/10/31 05:37:34;;;;;;;18.65;15.20;;;;;;;;;;5035857;28;20448;-56
2021/10/31 05:40:02;;;;;;;18.53;16.20;;;;;;;;;;5035783;28;20226;-56
2021/10/31 05:42:29;;;;;;;18.70;16.17;;;;;;;;;;5035724;28;20794;-56
2021/10/31 05:44:56;;;;;;;20.70;16.97;;;;;;;;;;5035710;28;20452;-56
2021/10/31 05:47:24;;;;;;;19.37;16.57;;;;;;;;;;5035220;28;20472;-55
2021/10/31 05:49:52;;;;;;;17.70;15.43;;;;;;;;;;5035290;28;20975;-56
2021/10/31 05:52:21;;;;;;;19.73;16.37;;;;;;;;;;5035530;28;20480;-56
2021/10/31 05:54:48;;;;;;;18.30;15.20;;;;;;;;;;5035522;28;20441;-56
2021/10/31 05:57:15;;;;;;;20.95;18.00;;;;;;;;;;5035545;28;20453;-56
2021/10/31 05:59:43;;;;;;;18.50;16.40;;;;;;;;;;5035516;28;20221;-56
2021/10/31 06:02:10;;;;;;;18.33;14.40;;;;;;;;;;5035027;28;20480;-56
2021/10/31 06:04:39;;;;;;;18.30;16.17;;;;;;;;;;5036020;28;20445;-56
2021/10/31 06:07:06;;;;;;;20.93;16.17;;;;;;;;;;5035320;28;20498;-56
2021/10/31 06:09:36;;;;;;;21.20;15.93;;;;;;;;;;5035241;28;20452;-56
2021/10/31 06:12:05;;;;;;;22.33;15.82;;;;;;;;;;5035197;28;20558;-56
2021/10/31 06:14:32;;;;;;;20.47;16.37;;;12.20;99.90;;;;;;5035117;28;20202;-56
2021/10/31 06:16:59;;;;;;;18.80;14.80;;;10.80;99.90;;;;;;5034737;28;20452;-56
2021/10/31 06:19:26;;;;;;;19.13;16.90;;;10.80;99.90;;;;;;5035508;28;20444;-56
2021/10/31 06:21:53;;;;;;;18.67;15.87;;;10.80;99.90;;;;;;5034496;28;21001;-56
2021/10/31 06:24:21;;;;;;;18.43;16.43;;;10.80;99.90;;;;;;5034632;28;20937;-56
2021/10/31 06:26:49;;;;;;;20.10;16.10;;;10.80;99.90;;;;;;5034544;28;20453;-56
2021/10/31 06:29:16;;;;;;;19.27;16.43;;;10.80;99.90;;;;;;5034498;28;20476;-56
2021/10/31 06:31:44;;;;;;;22.63;17.03;;;10.80;99.90;;;;;;5033900;28;20804;-56
2021/10/31 06:34:11;;;;;;;19.70;16.40;;;10.80;99.90;;;;;;5034775;28;20456;-56
2021/10/31 06:36:38;;;;;;;22.10;17.40;;;10.90;99.90;;;;;;5034787;28;20817;-54
2021/10/31 06:39:06;;;;;;;18.90;15.50;;;10.80;99.90;;;;;;5034808;28;20476;-56
2021/10/31 06:41:33;;;;;;;16.87;15.07;;;10.90;99.90;;;;;;5034408;28;20461;-55
2021/10/31 06:44:01;;;;;;;18.87;16.17;;;10.90;99.90;;;;;;5034630;28;20456;-56
2021/10/31 06:46:29;;;;;;;21.60;17.10;;;10.90;99.90;;;;;;5034439;28;20449;-56
2021/10/31 06:48:56;;;;;;;19.47;15.97;;;11.00;99.90;;;;;;5034838;28;20570;-56
2021/10/31 06:51:23;;;;;;;19.23;17.07;;;11.10;99.90;;;;;;5034985;28;20816;-56
2021/10/31 06:53:50;;;;;;;18.03;15.40;;;11.10;99.90;;;;;;5034554;28;20453;-56
2021/10/31 06:56:18;;;;;;;18.50;15.80;;;11.20;99.90;;;;;;5034301;28;20449;-56
2021/10/31 06:58:45;;;;;;;20.80;17.67;;;11.30;99.90;;;;;;5034558;28;20441;-55
2021/10/31 07:01:14;;;;;;;20.00;16.30;;;11.30;99.90;;;;;;5034123;28;20457;-56
2021/10/31 07:03:41;;;;;;;17.57;15.17;;;11.40;99.90;;;;;;5034932;28;20803;-56
2021/10/31 07:06:10;;;;;;;16.80;15.00;;;11.50;99.90;;;;;;5034254;28;20888;-56
2021/10/31 07:08:37;;;;;;;19.10;16.23;;;11.50;99.90;;;;;;5036049;28;20995;-56
2021/10/31 07:11:04;;;;;;;18.60;16.17;;;11.60;99.90;;;;;;5033913;28;21018;-56
2021/10/31 07:13:33;;;;;;;19.47;16.10;;;11.70;99.90;;;;;;5033705;28;20953;-56
2021/10/31 07:16:00;;;;;;;19.47;16.53;;;11.70;99.90;;;;;;5034145;28;20871;-56
2021/10/31 07:18:28;;;;;;;18.23;15.53;;;11.80;99.90;;;;;;5033670;28;20467;-55
2021/10/31 07:20:56;;;;;;;18.07;16.17;;;11.90;99.90;;;;;;5033724;28;20503;-55
2021/10/31 07:23:23;;;;;;;18.13;15.83;;;11.90;99.90;;;;;;5033989;28;20502;-56
2021/10/31 07:25:50;;;;;;;18.50;15.80;;;12.00;99.90;;;;;;5033878;28;20452;-55
2021/10/31 07:28:17;;;;;;;16.40;14.67;;;12.10;99.90;;;;;;5033820;28;20523;-55
2021/10/31 07:30:44;;;;;;;17.63;15.17;;;12.10;99.90;;;;;;5033755;28;20468;-55
2021/10/31 07:33:13;;;;;;;18.50;15.77;;;12.10;99.90;;;;;;5033564;28;20448;-55
2021/10/31 07:35:41;;;;;;;18.93;16.00;;;12.20;99.90;;;;;;5033553;28;20449;-55
2021/10/31 07:38:08;;;;;;;16.90;14.57;;;12.20;99.90;;;;;;5033552;28;20433;-55
2021/10/31 07:40:35;;;;;;;17.70;15.30;;;12.20;99.90;;;;;;5033567;28;20465;-55
2021/10/31 07:43:04;;;;;;;16.67;14.90;;;12.20;99.90;;;;;;5033421;28;20460;-56
2021/10/31 07:45:31;;;;;;;16.50;14.80;;;12.20;99.90;;;;;;5033584;28;20448;-56
2021/10/31 07:47:59;;;;;;;18.07;13.90;;;12.20;99.90;;;;;;5033399;28;20477;-56
2021/10/31 07:50:33;;;;;;;14.53;13.00;;;12.20;99.90;;;;;;5033180;28;20572;-55
2021/10/31 07:53:02;;;;;;;16.63;14.90;;;12.20;99.90;;;;;;5033323;28;20596;-55
2021/10/31 07:55:32;;;;;;;18.90;14.30;;;12.30;99.90;;;;;;5033583;28;20444;-56
2021/10/31 07:57:59;;;;;;;15.60;13.97;;;12.30;99.90;;;;;;5034059;28;20519;-55
2021/10/31 08:00:27;;;;;;;17.03;15.20;;;12.40;99.90;;;;;;5033219;28;20461;-55
2021/10/31 08:02:55;;;;;;;16.27;14.77;;;12.40;99.90;;;;;;5033304;28;20441;-55
2021/10/31 08:05:22;;;;;;;16.23;14.53;;;12.60;99.90;;;;;;5033364;28;20451;-56
2021/10/31 08:07:50;;;;;;;15.07;13.30;;;12.70;99.90;;;;;;5033239;28;20456;-55
2021/10/31 08:10:19;;;;;;;16.63;14.50;;;12.80;99.90;;;;;;5032771;28;20540;-55
2021/10/31 08:12:47;;;;;;;17.77;15.87;;;13.00;99.90;;;;;;5033424;28;20453;-56
2021/10/31 08:15:14;;;;;;;16.50;14.77;;;13.10;99.90;;;;;;5033312;28;20464;-56
2021/10/31 08:17:41;;;;;;;15.00;13.40;;;13.20;99.90;;;;;;5033048;28;20445;-56
2021/10/31 08:20:09;;;;;;;14.90;13.33;;;13.30;99.90;;;;;;5032944;28;20452;-54
2021/10/31 08:22:37;;;;;;;14.93;13.43;;;13.40;99.90;;;;;;5032770;28;20434;-56
2021/10/31 08:25:04;;;;;;;16.43;14.73;;;13.40;99.90;;;;;;5033098;28;20453;-56
2021/10/31 08:27:34;;;;;;;17.63;14.87;;;13.40;99.90;;;;;;5033072;28;20472;-56
2021/10/31 08:30:01;;;;;;;15.90;14.27;;;13.40;99.90;;;;;;5032826;28;20480;-57
2021/10/31 08:32:29;;;;;;;15.33;13.70;;;13.40;99.90;;;;;;5033180;28;20480;-56
2021/10/31 08:34:57;;;;;;;14.03;12.53;;;13.40;99.90;;;;;;5033075;28;20455;-56
2021/10/31 08:37:24;;;;;;;15.23;13.80;;;13.50;99.90;;;;;;5032713;28;20459;-56
2021/10/31 08:39:51;;;;;;;16.43;13.43;;;13.50;99.90;;;;;;5032782;28;20452;-56
2021/10/31 08:42:18;;;;;;;16.20;14.23;;;13.60;99.90;;;;;;5033055;28;20469;-55
2021/10/31 08:44:47;;;;;;;14.20;12.60;;;13.70;99.90;;;;;;5032969;28;20458;-57
2021/10/31 08:47:14;;;;;;;14.60;13.20;;;13.80;99.90;;;;;;5032976;28;20445;-58
2021/10/31 08:49:41;;;;;;;14.10;12.73;;;13.90;99.90;;;;;;5032899;28;20484;-57
2021/10/31 08:52:08;;;;;;;14.47;12.93;;;14.10;99.90;;;;;;5032617;28;20468;-56
2021/10/31 08:54:37;;;;;;;14.47;12.97;;;14.30;99.90;;;;;;5034612;28;20447;-56
2021/10/31 08:57:04;;;;;;;16.00;13.70;;;14.40;99.90;;;;;;5036313;28;20503;-55
2021/10/31 08:59:32;;;;;;;12.60;11.30;;;14.60;99.90;;;;;;5036177;28;20437;-55
2021/10/31 09:02:00;;;;;;;12.90;11.50;;;14.70;99.90;;;;;;5036545;28;20498;-57
2021/10/31 09:04:28;;;;;;;13.60;12.10;;;14.90;99.90;;;;;;5036449;28;20452;-56
2021/10/31 09:06:55;;;;;;;13.30;11.93;;;15.00;99.90;;;;;;5036523;28;20456;-55
2021/10/31 09:09:24;;;;;;;12.93;11.73;;;15.10;99.90;;;;;;5036038;28;20836;-56
2021/10/31 09:11:51;;;;;;;12.47;11.13;;;15.10;99.90;;;;;;5036306;28;20547;-55
2021/10/31 09:14:19;;;;;;;13.10;11.70;;;15.10;99.90;;;;;;5036146;28;20968;-57
2021/10/31 09:16:48;;;;;;;14.63;13.10;;;15.10;99.90;;;;;;5036406;28;20440;-56
2021/10/31 09:19:17;;;;;;;14.47;12.37;;;15.10;99.90;;;;;;5036130;28;20444;-56
2021/10/31 09:21:44;;;;;;;14.40;12.90;;;15.10;99.90;;;;;;5035702;28;20564;-55
2021/10/31 09:24:12;;;;;;;13.93;12.53;;;15.10;99.80;;;;;;5036011;28;20445;-56
2021/10/31 09:26:39;;;;;;;14.63;13.13;;;15.10;99.70;;;;;;5036123;28;20456;-56
2021/10/31 09:29:06;;;;;;;12.67;11.57;;;15.10;99.60;;;;;;5036103;28;20484;-56
2021/10/31 09:31:34;;;;;;;12.30;11.00;;;15.10;99.50;;;;;;5035489;28;20465;-56
2021/10/31 09:34:01;;;;;;;13.17;11.40;;;15.10;99.40;;;;;;5035761;28;20444;-56
2021/10/31 09:36:29;;;;;;;12.27;11.03;;;15.20;99.40;;;;;;5035853;28;20482;-57
2021/10/31 09:38:57;;;;;;;12.40;11.17;;;15.30;99.30;;;;;;5035612;28;20460;-56
2021/10/31 09:41:29;;;;;;;12.70;11.50;;;15.40;99.10;;;;;;5035527;28;20494;-56
2021/10/31 09:44:04;;;;;;;12.80;11.50;;;15.50;98.90;;;;;;5035761;28;20483;-56
2021/10/31 09:46:32;;;;;;;10.63;9.53;;;15.60;98.70;;;;;;5036096;28;20425;-56
2021/10/31 09:48:59;;;;;;;9.77;8.90;;;15.70;98.30;;;;;;5035453;28;20477;-56
2021/10/31 09:51:26;;;;;;;10.67;9.67;;;15.80;98.10;;;;;;5035088;28;20483;-56
2021/10/31 09:53:55;;;;;;;10.33;9.43;;;15.90;97.90;;;;;;5035551;28;20460;-56
2021/10/31 09:56:22;;;;;;;9.60;8.60;;;15.90;97.70;;;;;;5035507;28;20524;-56
2021/10/31 09:58:51;;;;;;;9.50;8.57;;;16.00;97.50;;;;;;5034993;28;20871;-56
2021/10/31 10:01:38;;;;;;;7.60;6.90;;;16.10;97.40;;;;;;5035239;28;20551;-56
2021/10/31 10:04:06;;;;;;;7.40;6.70;;;16.20;97.00;;;;;;5034955;28;20483;-55
2021/10/31 10:06:33;;;;;;;8.87;6.63;;;16.30;96.70;;;;;;5035186;28;20452;-56
2021/10/31 10:09:04;;;;;;;8.00;7.20;;;16.40;96.50;;;;;;5035023;28;20487;-55
2021/10/31 10:11:33;;;;;;;7.47;6.83;;;16.50;96.10;;;;;;5034994;28;20473;-56
2021/10/31 10:14:23;;;;;;;6.23;5.63;;;16.60;95.90;;;;;;5034968;28;20558;-56
2021/10/31 10:16:55;;;;;;;6.80;5.80;;;16.60;95.60;;;;;;5035910;28;20520;-56
2021/10/31 10:19:24;;;;;;;6.80;6.20;;;16.60;95.40;;;;;;5033777;28;20485;-57
2021/10/31 10:21:57;;;;;;;6.30;5.70;;;16.60;95.30;;;;;;5059482;22;20493;-57
2021/10/31 10:24:26;;;;;;;6.37;5.63;;;16.60;95.20;;;;;;5038323;28;20503;-73
2021/10/31 10:26:57;;;;;;;5.77;5.27;;;16.60;95.10;;;;;;5036234;28;20452;-59
2021/10/31 10:29:29;;;;;;;6.53;5.93;;;16.60;95.00;;;;;;5034642;28;20472;-58
2021/10/31 10:31:59;;;;;;;12.07;8.80;;;16.70;94.90;;;;;;5034165;28;20979;-59
2021/10/31 10:34:37;;;;;;;8.60;7.33;;;16.90;94.70;;;;;;5034248;28;20453;-59
2021/10/31 10:37:08;;;;;;;5.83;4.73;;;17.10;94.30;;;;;;5034519;28;20429;-57
2021/10/31 10:39:37;;;;;;;4.97;4.57;;;17.20;93.90;;;;;;5034321;28;20441;-58
2021/10/31 10:42:05;;;;;;;5.30;4.80;;;17.20;93.70;;;;;;5034614;28;20833;-59
2021/10/31 10:44:33;;;;;;;5.50;4.97;;;17.20;93.50;;;;;;5034728;28;20452;-59
2021/10/31 10:47:04;;;;;;;5.20;4.70;;;17.30;93.30;;;;;;5034178;28;20441;-59
2021/10/31 10:49:33;;;;;;;5.00;4.60;;;17.40;93.20;;;;;;5034473;28;20484;-59
2021/10/31 10:52:19;;;;;;;4.50;4.13;;;17.40;93.00;;;;;;5034009;28;20464;-59
2021/10/31 10:54:53;;;;;;;4.77;4.27;;;17.50;92.70;;;;;;5034376;28;20552;-59
2021/10/31 10:57:21;;;;;;;4.67;4.23;;;17.60;92.50;;;;;;5034020;28;20433;-59
2021/10/31 10:59:54;;;;;;;5.30;4.90;;;17.70;92.20;;;;;;5034209;28;20445;-59
2021/10/31 11:02:23;;;;;;;5.00;4.23;;;17.70;92.10;;;;;;5033879;28;20499;-59
2021/10/31 11:04:54;;;;;;;6.10;5.53;;;17.70;92.00;;;;;;5034150;28;20457;-59
2021/10/31 11:07:34;;;;;;;5.83;5.23;;;17.70;91.80;;;;;;5034292;28;20517;-59
2021/10/31 11:10:06;;;;;;;7.63;6.37;;;17.70;91.80;;;;;;5034275;28;20472;-59
2021/10/31 11:12:35;;;;;;;5.60;5.00;;;17.70;91.70;;;;;;5033821;28;21095;-60
2021/10/31 11:15:06;;;;;;;6.13;5.47;;;17.70;91.60;;;;;;5033578;28;20436;-59
2021/10/31 11:17:33;;;;;;;6.10;5.43;;;17.70;91.60;;;;;;5033461;28;20434;-59
2021/10/31 11:20:01;;;;;;;5.60;5.10;;;17.60;91.60;;;;;;5033536;28;20937;-57
2021/10/31 11:22:31;;;;;;;7.03;4.57;;;17.70;91.70;;;;;;5033210;28;20477;-59
2021/10/31 11:25:00;;;;;;;5.57;4.80;;;17.70;91.50;;;;;;5033837;28;20481;-59
2021/10/31 11:27:31;;;;;;;5.57;5.07;;;17.70;91.50;;;;;;5033430;28;20445;-59
2021/10/31 11:29:59;;;;;;;4.47;4.07;;;17.70;91.50;;;;;;5033660;28;20484;-58
2021/10/31 11:32:28;;;;;;;5.27;4.40;;;17.70;91.50;;;;;;5033270;28;20972;-59
2021/10/31 11:34:57;;;;;;;4.50;4.10;;;17.70;91.50;;;;;;5033369;28;20453;-57
2021/10/31 11:37:28;;;;;;;4.87;4.10;;;17.70;91.40;;;;;;5033273;28;20441;-58
2021/10/31 11:39:58;;;;;;;3.80;3.47;;;17.70;91.50;;;;;;5033431;28;20901;-59
2021/10/31 11:42:27;;;;;;;4.40;4.00;;;17.80;91.30;;;;;;5033237;28;20961;-59
2021/10/31 11:45:10;;;;;;;5.43;4.80;;;17.90;91.20;;;;;;5033405;28;20449;-59
2021/10/31 11:47:40;;;;;;;5.23;4.73;;;18.00;91.10;;;;;;5033209;28;20790;-59
2021/10/31 11:50:19;;;;;;;4.93;3.93;;;18.20;90.90;;;;;;5033000;28;20992;-58
2021/10/31 11:52:59;;;;;;;4.27;3.87;;;18.20;90.70;;;;;;5033952;28;20467;-61
2021/10/31 11:55:46;;;;;;;3.60;3.00;;;18.30;90.50;;;;;;5033314;28;20906;-59
2021/10/31 12:01:41;;;;;;;3.53;3.23;;;18.40;90.30;;;;;;5030766;28;20453;-59
2021/10/31 12:04:11;;;;;;;3.10;2.57;;;18.50;90.10;;;;;;5033288;28;20432;-59
2021/10/31 12:06:47;;;;;;;3.87;3.47;;;18.50;90.00;;;;;;5032769;28;20456;-59
2021/10/31 12:09:29;;;;;;;6.13;3.40;;;18.60;89.90;;;;;;5033219;28;20468;-59
2021/10/31 12:12:21;;;;;;;3.93;3.10;;;18.50;89.70;;;;;;5033185;28;20523;-59
2021/10/31 12:14:59;;;;;;;3.97;2.93;;;18.40;89.90;;;;;;5031625;28;20453;-59
2021/10/31 12:17:48;;;;;;;3.17;2.87;;;18.30;90.00;;;;;;5033376;28;20429;-59
2021/10/31 12:20:53;;;;;;;3.70;3.40;;;18.30;90.10;;;;;;5033224;28;20476;-59
2021/10/31 12:23:25;;;;;;;3.33;2.83;;;18.20;90.20;;;;;;5033165;28;20796;-59
2021/10/31 12:25:53;;;;;;;3.97;3.60;;;18.10;90.30;;;;;;5033512;28;20429;-60
2021/10/31 12:28:41;;;;;;;4.03;3.43;;;18.10;90.50;;;;;;5033545;28;20467;-58
2021/10/31 12:31:32;;;;;;;4.17;3.77;;;18.00;90.60;;;;;;5037435;28;20866;-59
2021/10/31 12:34:12;;;;;;;4.17;3.70;;;18.00;90.70;;;;;;5037130;28;20456;-60
2021/10/31 12:36:42;;;;;;;19.47;17.50;;;17.90;90.80;;;;;;5037327;28;20809;-59
2021/10/31 12:39:52;;;;;;;22.10;18.67;;;17.90;91.00;;;;;;5037278;28;20902;-60
2021/10/31 12:42:21;;;;;;;4.20;3.80;;;17.80;91.10;;;;;;5021986;28;20515;-60
2021/10/31 12:44:51;;;;;;;4.00;3.30;;;17.80;91.20;;;;;;5036638;28;20820;-60
2021/10/31 12:47:23;;;;;;;5.60;4.80;;;17.90;91.30;;;;;;5036631;28;20984;-59
2021/10/31 12:50:05;;;;;;;4.10;3.67;;;18.00;91.40;;;;;;5036744;28;20469;-60
2021/10/31 12:52:32;;;;;;;3.47;3.17;;;18.00;91.20;;;;;;5036649;28;20483;-59
2021/10/31 12:55:01;;;;;;;3.50;3.07;;;18.20;91.10;;;;;;5037034;28;20441;-59
2021/10/31 12:57:28;;;;;;;4.73;2.80;;;18.30;90.90;;;;;;5036661;28;20441;-59
2021/10/31 13:00:01;;;;;;;3.37;2.70;;;18.40;90.80;;;;;;5037272;28;20441;-60
2021/10/31 13:02:29;;;;;;;3.57;3.27;;;18.50;90.60;;;;;;5036524;28;20475;-59
2021/10/31 13:04:59;;;;;;;3.43;3.13;;;18.50;90.50;;;;;;5036317;28;20445;-59
2021/10/31 13:07:40;;;;;;;4.20;3.00;;;18.50;90.40;;;;;;5036262;28;20433;-60
2021/10/31 13:10:16;;;;;;;3.13;2.83;;;18.50;90.50;;;;;;5036998;28;20476;-60
2021/10/31 13:12:44;;;;;;;3.43;3.13;;;18.50;90.50;;;;;;5036880;28;20471;-59
2021/10/31 13:15:13;;;;;;;3.20;3.00;;;18.50;90.70;;;;;;5036711;28;20485;-59
2021/10/31 13:17:44;;;;;;;5.37;3.70;;;18.50;90.60;;;;;;5035907;28;20449;-58